Arletta, Washington
Current Conditions -  °F | °C
As of 1:42 PM on Thursday 18 Dec 2014 (Local Time) from KTIW Reporting Station
Broken Clouds Broken Clouds  
Wind Chill: 48°   Ceiling: 500
Heat Index: 48°   Visibility: 8mi
Dew Point: 44°   Wind: 3mph
Humidity: 86%   Direction: 280°W
Pressure: 29.83"   Gusts: NA
Location:  47.2986°N, 122.616°W
Report Text: KTIW 182142Z 28003KT 8SM BKN005 BKN034 BKN050 09/07 A2983 RMK AO2 T00890067
Loading
Personal Weather Stations






























Interactive Weather Map New forecast layout! Learn more

10-Day Weather Forecast

Advertisements
Track Severe Weather on mobile